createdAt,value
2022-12-29T00:02:39.072Z,2.25
2022-12-29T00:05:25.020Z,2.28
2022-12-29T00:08:10.111Z,2.15
2022-12-29T00:10:55.511Z,2.30
2022-12-29T00:13:59.939Z,2.38
2022-12-29T00:16:46.546Z,2.40
2022-12-29T00:19:50.221Z,1.92
2022-12-29T00:22:54.235Z,2.00
2022-12-29T00:26:17.875Z,1.75
2022-12-29T00:29:22.662Z,1.85
2022-12-29T00:32:29.580Z,1.58
2022-12-29T00:35:20.248Z,1.88
2022-12-29T00:38:27.294Z,1.50
2022-12-29T00:41:31.201Z,1.48
2022-12-29T00:44:16.654Z,1.55
2022-12-29T00:47:05.224Z,1.95
2022-12-29T00:49:51.188Z,1.40
2022-12-29T00:52:36.541Z,1.20
2022-12-29T00:55:22.209Z,1.50
2022-12-29T00:58:07.690Z,1.13
2022-12-29T01:00:53.290Z,1.30
2022-12-29T01:03:39.211Z,1.20
2022-12-29T01:06:24.905Z,1.23
2022-12-29T01:09:29.325Z,1.17
2022-12-29T01:12:14.883Z,1.45
2022-12-29T01:15:00.423Z,1.20
2022-12-29T01:17:46.110Z,1.27
2022-12-29T01:20:31.595Z,1.00
2022-12-29T01:23:17.237Z,1.02
2022-12-29T01:26:15.200Z,1.33
2022-12-29T01:29:00.690Z,1.20
2022-12-29T01:31:46.647Z,1.23
2022-12-29T01:34:32.407Z,1.30
2022-12-29T01:37:18.025Z,1.00
2022-12-29T01:40:03.468Z,1.30
2022-12-29T01:42:51.087Z,1.20
2022-12-29T01:45:36.783Z,1.20
2022-12-29T01:48:24.273Z,1.10
2022-12-29T01:51:10.125Z,1.10
2022-12-29T01:53:57.083Z,1.20
2022-12-29T01:56:43.625Z,1.30
2022-12-29T01:59:33.906Z,0.98
2022-12-29T02:02:19.639Z,1.10
2022-12-29T02:05:12.149Z,1.15
2022-12-29T02:07:57.865Z,1.30
2022-12-29T02:10:45.111Z,0.90
2022-12-29T02:13:31.387Z,0.93
2022-12-29T02:16:25.532Z,0.90
2022-12-29T02:19:24.340Z,1.13
2022-12-29T02:22:25.036Z,1.30
2022-12-29T02:25:31.279Z,1.27
2022-12-29T02:28:39.822Z,1.02
2022-12-29T02:32:00.332Z,1.27
2022-12-29T02:35:02.904Z,1.33
2022-12-29T02:38:23.113Z,1.10
2022-12-29T02:41:23.135Z,1.10
2022-12-29T02:44:30.267Z,0.98
2022-12-29T02:47:31.065Z,1.08
2022-12-29T02:50:27.758Z,0.88
2022-12-29T02:53:17.224Z,0.90
2022-12-29T02:56:02.985Z,1.10
2022-12-29T02:58:48.722Z,0.80
2022-12-29T03:02:18.347Z,0.80
2022-12-29T03:05:34.274Z,1.13
2022-12-29T03:08:48.901Z,0.80
2022-12-29T03:12:03.750Z,0.93
2022-12-29T03:15:29.541Z,0.77
2022-12-29T03:18:21.449Z,0.70
2022-12-29T03:21:15.615Z,0.75
2022-12-29T03:24:02.269Z,0.77
2022-12-29T03:26:49.890Z,0.60
2022-12-29T03:29:42.991Z,0.70
2022-12-29T03:32:37.055Z,0.70
2022-12-29T03:35:26.552Z,0.60
2022-12-29T03:38:36.066Z,1.23
2022-12-29T03:41:26.945Z,0.80
2022-12-29T03:44:14.453Z,1.10
2022-12-29T03:47:00.145Z,1.30
2022-12-29T03:49:45.476Z,1.45
2022-12-29T03:52:30.908Z,1.70
2022-12-29T03:55:16.412Z,1.20
2022-12-29T03:58:02.324Z,1.60
2022-12-29T04:01:08.188Z,1.98
2022-12-29T04:03:56.157Z,1.33
2022-12-29T04:06:41.489Z,2.00
2022-12-29T04:09:27.444Z,1.48
2022-12-29T04:12:15.345Z,1.80
2022-12-29T04:15:01.477Z,1.23
2022-12-29T04:17:47.350Z,1.58
2022-12-29T04:20:51.298Z,2.00
2022-12-29T04:23:38.415Z,1.83
2022-12-29T04:26:26.419Z,1.75
2022-12-29T04:29:35.080Z,1.80
2022-12-29T04:32:43.162Z,1.60
2022-12-29T04:35:28.813Z,1.85
2022-12-29T04:38:14.885Z,1.38
2022-12-29T04:41:01.708Z,1.70
2022-12-29T04:43:47.322Z,1.77
2022-12-29T04:46:51.860Z,1.70
2022-12-29T04:50:02.202Z,1.50
2022-12-29T04:53:02.972Z,2.03
2022-12-29T04:55:53.628Z,1.73
2022-12-29T04:58:39.354Z,2.15
2022-12-29T05:01:24.889Z,1.70
2022-12-29T05:04:10.266Z,1.67
2022-12-29T05:06:56.851Z,2.25
2022-12-29T05:09:42.432Z,1.90
2022-12-29T05:12:31.925Z,1.90
2022-12-29T05:15:19.247Z,2.13
2022-12-29T05:18:04.436Z,1.90
2022-12-29T05:20:50.121Z,1.67
2022-12-29T05:23:37.014Z,1.45
2022-12-29T05:26:24.895Z,1.70
2022-12-29T05:29:23.830Z,1.83
2022-12-29T05:32:09.357Z,1.70
2022-12-29T05:34:54.767Z,1.38
2022-12-29T05:37:40.961Z,1.50
2022-12-29T05:40:26.761Z,1.88
2022-12-29T05:43:16.084Z,1.42
2022-12-29T05:46:31.258Z,2.00
2022-12-29T05:49:48.798Z,1.70
2022-12-29T05:52:59.969Z,2.13
2022-12-29T05:55:48.978Z,1.60
2022-12-29T05:58:35.294Z,1.73
2022-12-29T06:01:20.814Z,1.52
2022-12-29T06:04:06.617Z,1.48
2022-12-29T06:06:52.798Z,2.17
2022-12-29T06:09:44.789Z,1.50
2022-12-29T06:12:31.270Z,1.77
2022-12-29T06:15:16.746Z,2.30
2022-12-29T06:18:03.450Z,1.65
2022-12-29T06:20:48.868Z,2.05
2022-12-29T06:23:36.645Z,2.05
2022-12-29T06:26:23.100Z,1.92
2022-12-29T06:29:09.653Z,1.90
2022-12-29T06:31:58.840Z,2.50
2022-12-29T06:34:45.674Z,2.78
2022-12-29T06:37:31.356Z,2.75
2022-12-29T06:40:17.014Z,2.13
2022-12-29T06:43:28.360Z,2.72
2022-12-29T06:46:16.980Z,2.00
2022-12-29T06:49:02.844Z,2.10
2022-12-29T06:51:48.152Z,2.13
2022-12-29T06:54:33.712Z,2.45
2022-12-29T06:57:20.869Z,2.13
2022-12-29T07:00:06.706Z,2.58
2022-12-29T07:02:53.248Z,2.30
2022-12-29T07:05:39.025Z,2.63
2022-12-29T07:08:25.235Z,2.65
2022-12-29T07:11:10.602Z,2.33
2022-12-29T07:13:55.699Z,2.50
2022-12-29T07:16:41.286Z,2.17
2022-12-29T07:19:26.789Z,2.20
2022-12-29T07:22:12.362Z,2.53
2022-12-29T07:24:57.912Z,2.90
2022-12-29T07:27:43.139Z,2.50
2022-12-29T07:30:28.803Z,2.40
2022-12-29T07:33:14.439Z,2.97
2022-12-29T07:36:00.600Z,3.10
2022-12-29T07:38:46.257Z,2.80
2022-12-29T07:41:31.653Z,2.88
2022-12-29T07:44:18.441Z,2.63
2022-12-29T07:47:33.873Z,2.85
2022-12-29T07:50:19.286Z,2.58
2022-12-29T07:53:04.731Z,2.88
2022-12-29T07:55:50.109Z,2.40
2022-12-29T07:58:35.694Z,2.17
2022-12-29T08:01:22.350Z,2.22
2022-12-29T08:04:08.053Z,2.40
2022-12-29T08:06:53.942Z,1.92
2022-12-29T08:09:39.236Z,1.67
2022-12-29T08:12:25.018Z,1.90
2022-12-29T08:15:12.308Z,2.67
2022-12-29T08:17:57.728Z,2.10
2022-12-29T08:20:42.977Z,2.30
2022-12-29T08:23:28.381Z,2.20
2022-12-29T08:26:14.095Z,2.15
2022-12-29T08:28:59.808Z,2.35
2022-12-29T08:31:45.205Z,2.17
2022-12-29T08:34:32.643Z,2.33
2022-12-29T08:37:17.950Z,2.95
2022-12-29T08:40:04.710Z,1.92
2022-12-29T08:42:50.351Z,2.30
2022-12-29T08:45:35.828Z,2.50
2022-12-29T08:48:23.252Z,2.30
2022-12-29T08:51:09.087Z,2.40
2022-12-29T08:53:54.589Z,3.38
2022-12-29T08:56:40.843Z,2.55
2022-12-29T08:59:27.139Z,2.25
2022-12-29T09:02:16.355Z,2.90
2022-12-29T09:05:05.408Z,2.72
2022-12-29T09:07:51.022Z,2.53
2022-12-29T09:10:36.450Z,2.10
2022-12-29T09:13:22.088Z,2.72
2022-12-29T09:16:07.839Z,2.13
2022-12-29T09:18:53.379Z,2.40
2022-12-29T09:21:39.013Z,2.33
2022-12-29T09:24:24.468Z,2.72
2022-12-29T09:27:10.205Z,2.15
2022-12-29T09:29:55.860Z,2.30
2022-12-29T09:32:45.040Z,2.42
2022-12-29T09:35:31.166Z,2.40
2022-12-29T09:38:16.876Z,2.00
2022-12-29T09:41:18.841Z,2.38
2022-12-29T09:44:25.862Z,2.10
2022-12-29T09:47:14.317Z,2.17
2022-12-29T09:50:34.662Z,2.95
2022-12-29T09:53:28.655Z,2.92
2022-12-29T09:56:20.777Z,2.55
2022-12-29T09:59:16.770Z,3.17
2022-12-29T10:02:37.755Z,2.85
2022-12-29T10:05:30.734Z,2.88
2022-12-29T10:08:48.952Z,2.58
2022-12-29T10:12:21.945Z,2.75
2022-12-29T10:15:30.937Z,2.60
2022-12-29T10:18:30.835Z,3.15
2022-12-29T10:21:33.184Z,3.03
2022-12-29T10:24:21.705Z,3.40
2022-12-29T10:27:12.829Z,3.08
2022-12-29T10:30:00.290Z,2.90
2022-12-29T10:32:54.218Z,4.10
2022-12-29T10:35:41.569Z,3.53
2022-12-29T10:38:32.269Z,3.72
2022-12-29T10:41:47.196Z,3.67
2022-12-29T10:44:35.566Z,4.00
2022-12-29T10:47:25.934Z,3.63
2022-12-29T10:50:14.126Z,3.33
2022-12-29T10:53:03.707Z,3.97
2022-12-29T10:55:50.258Z,4.03
2022-12-29T10:58:35.448Z,3.53
2022-12-29T11:01:21.529Z,3.90
2022-12-29T11:04:23.036Z,2.97
2022-12-29T11:07:15.857Z,3.90
2022-12-29T11:10:20.759Z,3.35
2022-12-29T11:13:16.179Z,2.40
2022-12-29T11:16:01.991Z,2.92
2022-12-29T11:18:47.822Z,2.78
2022-12-29T11:21:42.930Z,2.78
2022-12-29T11:24:30.107Z,3.00
2022-12-29T11:27:24.199Z,3.40
2022-12-29T11:30:26.076Z,3.40
2022-12-29T11:33:11.558Z,2.72
2022-12-29T11:36:14.577Z,3.15
2022-12-29T11:39:00.588Z,3.55
2022-12-29T11:41:53.574Z,3.22
2022-12-29T11:44:45.117Z,2.80
2022-12-29T11:47:33.527Z,3.13
2022-12-29T11:50:31.381Z,3.13
2022-12-29T11:53:29.075Z,3.17
2022-12-29T11:56:17.799Z,2.30
2022-12-29T11:59:26.416Z,2.55
2022-12-29T12:02:37.251Z,2.33
2022-12-29T12:05:34.854Z,2.42
2022-12-29T12:08:28.969Z,3.08
2022-12-29T12:11:42.918Z,2.00
2022-12-29T12:14:39.597Z,2.28
2022-12-29T12:17:52.551Z,2.78
2022-12-29T12:20:58.645Z,2.10
2022-12-29T12:24:01.211Z,2.35
2022-12-29T12:26:56.331Z,1.65
2022-12-29T12:30:00.501Z,2.10
2022-12-29T12:33:25.318Z,1.42
2022-12-29T12:36:22.998Z,1.83
2022-12-29T12:39:11.239Z,1.80
2022-12-29T12:42:26.540Z,1.60
2022-12-29T12:45:39.752Z,1.75
2022-12-29T12:48:40.516Z,1.42
2022-12-29T12:52:04.825Z,2.10
2022-12-29T12:55:10.162Z,1.60
2022-12-29T12:58:26.721Z,1.77
2022-12-29T13:01:15.017Z,1.40
2022-12-29T13:04:18.954Z,1.70
2022-12-29T13:07:44.199Z,1.65
2022-12-29T13:10:53.927Z,1.40
2022-12-29T13:13:51.799Z,1.40
2022-12-29T13:16:58.734Z,1.95
2022-12-29T13:20:03.108Z,1.80
2022-12-29T13:23:11.986Z,1.83
2022-12-29T13:26:19.081Z,1.40
2022-12-29T13:29:10.995Z,1.70
2022-12-29T13:32:02.108Z,1.80
2022-12-29T13:35:02.571Z,1.52
2022-12-29T13:37:56.139Z,1.77
2022-12-29T13:40:45.817Z,1.52
2022-12-29T13:43:35.210Z,1.50
2022-12-29T13:46:27.784Z,1.45
2022-12-29T13:49:19.841Z,1.40
2022-12-29T13:52:17.922Z,2.10
2022-12-29T13:55:18.665Z,2.05
2022-12-29T13:58:13.975Z,1.58
2022-12-29T14:01:28.903Z,1.77
2022-12-29T14:04:21.534Z,2.15
2022-12-29T14:09:59.561Z,1.60
2022-12-29T14:12:45.044Z,1.70
2022-12-29T14:15:30.335Z,1.30
2022-12-29T14:18:22.837Z,1.30
2022-12-29T14:21:17.217Z,1.70
2022-12-29T14:24:27.694Z,2.00
2022-12-29T14:27:15.822Z,1.58
2022-12-29T14:30:01.532Z,1.55
2022-12-29T14:33:03.499Z,2.15
2022-12-29T14:35:52.967Z,1.92
2022-12-29T14:38:46.884Z,2.00
2022-12-29T14:41:38.817Z,2.45
2022-12-29T14:44:24.153Z,2.20
2022-12-29T14:47:09.952Z,1.88
2022-12-29T14:49:55.943Z,2.35
2022-12-29T14:52:48.847Z,2.05
2022-12-29T14:55:49.125Z,1.70
2022-12-29T14:58:50.125Z,1.80
2022-12-29T15:01:49.390Z,1.73
2022-12-29T15:04:36.744Z,1.60
2022-12-29T15:07:22.252Z,2.15
2022-12-29T15:10:15.135Z,1.88
2022-12-29T15:13:05.875Z,1.70
2022-12-29T15:15:51.914Z,1.80
2022-12-29T15:18:40.354Z,1.77
2022-12-29T15:21:29.871Z,2.00
2022-12-29T15:24:15.841Z,2.35
2022-12-29T15:27:04.753Z,2.08
2022-12-29T15:29:58.734Z,2.03
2022-12-29T15:32:45.855Z,1.95
2022-12-29T15:35:35.246Z,1.65
2022-12-29T15:38:34.685Z,2.17
2022-12-29T15:42:11.212Z,1.85
2022-12-29T15:45:09.566Z,2.13
2022-12-29T15:47:57.191Z,2.05
2022-12-29T15:50:44.164Z,1.80
2022-12-29T15:53:31.900Z,2.38
2022-12-29T15:56:18.263Z,2.22
2022-12-29T15:59:03.740Z,2.05
2022-12-29T16:01:49.495Z,2.15
2022-12-29T16:04:48.412Z,2.55
2022-12-29T16:07:41.908Z,2.05
2022-12-29T16:10:34.445Z,2.53
2022-12-29T16:13:29.513Z,2.05
2022-12-29T16:16:26.581Z,2.60
2022-12-29T16:19:25.373Z,2.42
2022-12-29T16:22:24.463Z,2.00
2022-12-29T16:25:33.165Z,2.42
2022-12-29T16:28:24.116Z,1.73
2022-12-29T16:31:23.564Z,2.33
2022-12-29T16:34:22.712Z,2.13
2022-12-29T16:37:31.868Z,2.10
2022-12-29T16:40:29.227Z,2.63
2022-12-29T16:43:48.602Z,2.65
2022-12-29T16:46:33.826Z,2.58
2022-12-29T16:49:23.169Z,2.30
2022-12-29T16:52:24.630Z,2.55
2022-12-29T16:55:17.400Z,2.47
2022-12-29T16:58:02.964Z,2.35
2022-12-29T17:00:48.526Z,2.85
2022-12-29T17:03:41.181Z,1.90
2022-12-29T17:06:26.994Z,2.40
2022-12-29T17:09:19.353Z,2.40
2022-12-29T17:12:11.264Z,2.60
2022-12-29T17:15:06.670Z,2.22
2022-12-29T17:17:53.954Z,2.58
2022-12-29T17:20:39.365Z,2.17
2022-12-29T17:23:26.762Z,2.00
2022-12-29T17:26:13.166Z,2.25
2022-12-29T17:28:58.419Z,2.13
2022-12-29T17:31:43.992Z,2.47
2022-12-29T17:34:29.598Z,2.30
2022-12-29T17:37:24.144Z,2.40
2022-12-29T17:40:18.371Z,2.05
2022-12-29T17:43:03.672Z,1.90
2022-12-29T17:45:59.386Z,2.10
2022-12-29T17:48:51.539Z,2.33
2022-12-29T17:51:38.420Z,2.55
2022-12-29T17:54:26.243Z,2.28
2022-12-29T17:57:19.228Z,2.08
2022-12-29T18:00:06.427Z,2.83
2022-12-29T18:02:59.102Z,2.85
2022-12-29T18:05:44.979Z,1.83
2022-12-29T18:08:30.662Z,2.65
2022-12-29T18:11:25.430Z,2.50
2022-12-29T18:14:16.194Z,2.58
2022-12-29T18:17:01.658Z,3.08
2022-12-29T18:19:47.189Z,2.40
2022-12-29T18:22:32.687Z,2.22
2022-12-29T18:25:26.997Z,2.58
2022-12-29T18:28:12.544Z,2.35
2022-12-29T18:31:00.447Z,2.50
2022-12-29T18:33:46.650Z,1.90
2022-12-29T18:36:32.088Z,2.13
2022-12-29T18:39:17.387Z,2.00
2022-12-29T18:42:03.973Z,2.20
2022-12-29T18:44:49.286Z,2.47
2022-12-29T18:47:34.659Z,2.70
2022-12-29T18:50:20.172Z,2.20
2022-12-29T18:53:05.611Z,2.25
2022-12-29T18:55:51.818Z,2.25
2022-12-29T18:58:37.729Z,2.33
2022-12-29T19:01:26.117Z,2.47
2022-12-29T19:04:15.454Z,2.67
2022-12-29T19:07:00.696Z,2.60
2022-12-29T19:09:45.923Z,2.95
2022-12-29T19:12:31.444Z,3.17
2022-12-29T19:15:25.356Z,3.33
2022-12-29T19:18:43.037Z,2.67
2022-12-29T19:21:22.431Z,3.08
2022-12-29T19:24:08.095Z,2.63
2022-12-29T19:26:53.509Z,2.78
2022-12-29T19:29:39.043Z,3.58
2022-12-29T19:32:24.531Z,2.92
2022-12-29T19:35:11.524Z,3.53
2022-12-29T19:37:56.902Z,2.63
2022-12-29T19:40:48.508Z,3.35
2022-12-29T19:43:33.721Z,3.28
2022-12-29T19:46:20.203Z,3.10
2022-12-29T19:49:05.365Z,2.83
2022-12-29T19:51:50.853Z,2.90
2022-12-29T19:54:36.317Z,2.97
2022-12-29T19:57:22.097Z,2.95
2022-12-29T20:00:08.414Z,2.47
2022-12-29T20:02:57.050Z,3.38
2022-12-29T20:05:47.384Z,3.03
2022-12-29T20:08:32.847Z,3.15
2022-12-29T20:11:19.436Z,2.35
2022-12-29T20:14:04.538Z,2.35
2022-12-29T20:17:10.224Z,2.70
2022-12-29T20:19:55.328Z,2.30
2022-12-29T20:22:41.251Z,3.13
2022-12-29T20:25:46.002Z,2.80
2022-12-29T20:28:32.284Z,2.50
2022-12-29T20:31:29.598Z,2.60
2022-12-29T20:34:16.052Z,2.85
2022-12-29T20:37:01.132Z,2.88
2022-12-29T20:39:46.548Z,2.50
2022-12-29T20:42:32.064Z,2.78
2022-12-29T20:45:17.672Z,2.53
2022-12-29T20:48:03.002Z,3.65
2022-12-29T20:50:48.605Z,2.90
2022-12-29T20:53:35.920Z,3.17
2022-12-29T20:56:24.218Z,3.25
2022-12-29T20:59:26.821Z,3.17
2022-12-29T21:02:22.992Z,3.10
2022-12-29T21:05:25.469Z,3.83
2022-12-29T21:08:11.696Z,3.25
2022-12-29T21:10:58.659Z,2.80
2022-12-29T21:13:43.954Z,2.90
2022-12-29T21:16:29.974Z,2.78
2022-12-29T21:19:16.051Z,3.25
2022-12-29T21:22:01.080Z,2.92
2022-12-29T21:24:46.773Z,3.53
2022-12-29T21:27:33.329Z,2.78
2022-12-29T21:30:18.818Z,3.00
2022-12-29T21:33:05.018Z,3.72
2022-12-29T21:35:50.459Z,2.88
2022-12-29T21:38:36.007Z,3.22
2022-12-29T21:41:22.432Z,2.33
2022-12-29T21:44:26.272Z,3.55
2022-12-29T21:47:11.968Z,2.78
2022-12-29T21:49:57.358Z,3.17
2022-12-29T21:52:42.748Z,2.55
2022-12-29T21:55:28.132Z,3.25
2022-12-29T21:58:32.021Z,2.92
2022-12-29T22:01:36.470Z,3.45
2022-12-29T22:04:42.970Z,3.38
2022-12-29T22:07:46.673Z,2.88
2022-12-29T22:10:50.748Z,2.90
2022-12-29T22:13:39.175Z,2.42
2022-12-29T22:16:25.260Z,2.72
2022-12-29T22:19:11.095Z,2.58
2022-12-29T22:21:56.518Z,3.13
2022-12-29T22:24:41.937Z,3.08
2022-12-29T22:27:27.507Z,2.60
2022-12-29T22:30:13.534Z,2.90
2022-12-29T22:32:59.060Z,2.53
2022-12-29T22:35:45.250Z,2.88
2022-12-29T22:38:30.415Z,2.80
2022-12-29T22:41:16.622Z,3.65
2022-12-29T22:44:02.056Z,2.67
2022-12-29T22:46:47.589Z,3.05
2022-12-29T22:49:33.022Z,2.53
2022-12-29T22:52:18.444Z,2.97
2022-12-29T22:55:07.279Z,2.50
2022-12-29T22:57:52.992Z,3.10
2022-12-29T23:00:38.250Z,2.90
2022-12-29T23:03:24.326Z,2.67
2022-12-29T23:06:13.198Z,3.30
2022-12-29T23:09:00.442Z,2.50
2022-12-29T23:11:46.427Z,2.95
2022-12-29T23:14:31.463Z,2.67
2022-12-29T23:17:16.939Z,2.58
2022-12-29T23:20:02.154Z,2.72
2022-12-29T23:22:47.711Z,2.42
2022-12-29T23:25:38.536Z,1.90
2022-12-29T23:28:23.704Z,2.45
2022-12-29T23:31:09.158Z,2.35
2022-12-29T23:33:55.498Z,2.05
2022-12-29T23:36:41.558Z,2.30
2022-12-29T23:39:28.503Z,2.10
2022-12-29T23:42:14.015Z,2.70
2022-12-29T23:44:59.565Z,1.88
2022-12-29T23:47:45.036Z,2.13
2022-12-29T23:50:30.894Z,1.90
2022-12-29T23:53:16.077Z,2.05
2022-12-29T23:56:02.220Z,2.53
2022-12-29T23:58:47.696Z,2.00
